Data for 12/25/2008

Time Sea-Level Adjusted Pressure Absolute Pressure Temperature Relative Humidity Dew Point   
(mb) (inHg) (mb) (inHg) (C) (F) (%) (C) (F)
00:05 1002 29.59 831 24.54 -4.2 24.4 56 -11.6 11.1
00:10 1002 29.59 831 24.54 -4.2 24.4 56 -11.8 10.8
00:15 1002 29.59 831 24.54 -4.2 24.5 57 -11.5 11.3
00:20 1002 29.59 831 24.54 -4 24.7 54 -12 10.4
00:25 1001 29.56 831 24.54 -3.8 25.2 54 -11.8 10.8
00:30 1001 29.56 831 24.54 -3.8 25.1 55 -11.6 11
00:35 1001 29.56 831 24.54 -3.7 25.3 53 -12 10.4
00:40 1001 29.56 831 24.54 -3.5 25.7 54 -11.6 11.1
00:45 1001 29.56 830 24.51 -3.5 25.7 54 -11.6 11.2
00:50 1001 29.56 830 24.51 -3.5 25.7 53 -11.7 10.9
00:55 1001 29.56 830 24.51 -3.3 26 55 -11.1 12
01:00 1001 29.56 830 24.51 -3.3 26 52 -11.8 10.8
01:05 1001 29.56 830 24.51 -3.1 26.3 54 -11.2 11.8
01:10 1001 29.56 830 24.51 -3.2 26.2 53 -11.5 11.4
01:15 1001 29.56 830 24.51 -3.1 26.4 53 -11.4 11.4
01:20 1000 29.53 830 24.51 -3.1 26.4 54 -11.1 12
01:25 1000 29.53 829 24.48 -3.3 26 57 -10.6 12.9
01:30 1000 29.53 829 24.48 -3.4 25.9 56 -11 12.2
01:35 1000 29.53 829 24.48 -3.3 26 56 -11 12.2
01:40 1000 29.53 829 24.48 -3.2 26.3 57 -10.6 12.9
01:45 1000 29.53 829 24.48 -3.2 26.3 55 -11 12.2
01:50 999 29.5 829 24.48 -2.9 26.8 54 -11 12.2
01:55 999 29.5 829 24.48 -2.8 27 55 -10.5 13
02:00 999 29.5 828 24.45 -2.5 27.4 54 -10.7 12.7
02:05 999 29.5 828 24.45 -2.7 27.2 55 -10.6 12.9
02:10 999 29.5 828 24.45 -2.5 27.4 54 -10.7 12.8
02:15 999 29.5 828 24.45 -2.4 27.7 53 -10.7 12.7
02:20 999 29.5 828 24.45 -2.3 27.8 52 -10.9 12.3
02:25 999 29.5 828 24.45 -2.1 28.3 51 -10.9 12.4
02:30 999 29.5 828 24.45 -2.1 28.2 51 -10.8 12.5
02:35 999 29.5 828 24.45 -2 28.5 50 -11 12.2
02:40 999 29.5 828 24.45 -2 28.5 52 -10.7 12.8
02:45 999 29.5 828 24.45 -2.1 28.3 51 -10.8 12.5
02:50 999 29.5 828 24.45 -1.8 28.8 52 -10.5 13.1
02:55 999 29.5 828 24.45 -1.9 28.7 49 -11.3 11.7
03:00 999 29.5 828 24.45 -1.5 29.3 45 -11.9 10.6
03:05 999 29.5 828 24.45 -0.9 30.4 44 -11.6 11.2
03:10 999 29.5 828 24.45 -0.9 30.4 44 -11.6 11
03:15 999 29.5 828 24.45 -0.8 30.5 44 -11.6 11.1
03:20 998 29.47 828 24.45 -0.9 30.4 47 -10.9 12.3
03:25 998 29.47 828 24.45 -1 30.2 46 -11.2 11.8
03:30 998 29.47 827 24.42 -0.8 30.5 49 -10.3 13.5
03:35 998 29.47 827 24.42 -1.2 29.8 46 -11.5 11.3
03:40 998 29.47 827 24.42 -0.7 30.8 46 -11 12.2
03:45 998 29.47 827 24.42 -1.3 29.7 51 -10.3 13.5
03:50 998 29.47 827 24.42 -1.8 28.7 51 -10.6 12.9
03:55 998 29.47 827 24.42 -1.7 29 52 -10.4 13.3
04:00 998 29.47 827 24.42 -2 28.4 55 -9.9 14.3
04:05 998 29.47 827 24.42 -2.5 27.5 57 -9.9 14.2
04:10 997 29.44 827 24.42 -2.7 27.1 59 -9.6 14.6
04:15 997 29.44 827 24.42 -2.9 26.8 61 -9.5 15
04:20 997 29.44 826 24.39 -3 26.6 61 -9.4 15
04:25 997 29.44 826 24.39 -2.8 26.9 58 -9.9 14.2
04:30 997 29.44 826 24.39 -2.6 27.4 57 -9.9 14.2
04:35 997 29.44 826 24.39 -2.5 27.5 59 -9.6 14.8
04:40 997 29.44 826 24.39 -2.6 27.4 58 -9.7 14.6
04:45 997 29.44 826 24.39 -2.6 27.3 59 -9.6 14.7
04:50 997 29.44 826 24.39 -2.6 27.3 58 -9.7 14.5
04:55 997 29.44 826 24.39 -2.5 27.4 58 -9.8 14.4
05:00 997 29.44 826 24.39 -2.5 27.6 60 -9.3 15.3
05:05 997 29.44 826 24.39 -2.6 27.3 59 -9.6 14.8
05:10 997 29.44 826 24.39 -2.7 27.2 60 -9.3 15.2
05:15 997 29.44 826 24.39 -3 26.6 63 -9.1 15.6
05:20 997 29.44 826 24.39 -3 26.6 61 -9.6 14.8
05:25 997 29.44 826 24.39 -2.9 26.8 60 -9.5 14.8
05:30 997 29.44 826 24.39 -2.6 27.3 60 -9.3 15.2
05:35 996 29.41 826 24.39 -2.7 27.1 60 -9.3 15.2
05:40 996 29.41 826 24.39 -2.8 27 62 -9.1 15.6
05:45 996 29.41 826 24.39 -2.9 26.8 62 -9.1 15.6
05:50 996 29.41 825 24.36 -2.9 26.8 62 -9.2 15.5
05:55 996 29.41 826 24.39 -2.8 27 61 -9.2 15.4
06:00 996 29.41 825 24.36 -2.8 27 61 -9.2 15.5
06:05 996 29.41 825 24.36 -2.7 27.1 62 -9 15.8
06:10 996 29.41 825 24.36 -2.8 27 62 -9.1 15.5
06:15 996 29.41 826 24.39 -2.8 27 63 -8.9 16
06:20 996 29.41 825 24.36 -2.7 27.1 61 -9.3 15.3
06:25 996 29.41 825 24.36 -2.6 27.4 60 -9.4 15.1
06:30 996 29.41 825 24.36 -2.3 27.9 63 -8.4 16.9
06:35 996 29.41 825 24.36 -2.5 27.4 61 -9.1 15.6
06:40 996 29.41 825 24.36 -2.5 27.5 61 -9 15.8
06:45 996 29.41 825 24.36 -2.4 27.6 61 -9 15.8
06:50 996 29.41 825 24.36 -2.1 28.2 60 -8.9 16
06:55 996 29.41 825 24.36 -2.2 28 62 -8.6 16.5
07:00 996 29.41 825 24.36 -2.4 27.6 62 -8.7 16.4
07:05 996 29.41 825 24.36 -2.4 27.6 61 -8.9 16
07:10 996 29.41 825 24.36 -2 28.3 60 -8.8 16.1
07:15 996 29.41 825 24.36 -2 28.3 61 -8.6 16.5
07:20 996 29.41 825 24.36 -2 28.3 59 -8.9 15.9
07:25 996 29.41 825 24.36 -1.9 28.6 61 -8.4 16.8
07:30 996 29.41 825 24.36 -2 28.4 61 -8.6 16.6
07:35 996 29.41 825 24.36 -1.9 28.6 61 -8.5 16.6
07:40 996 29.41 825 24.36 -1.8 28.7 60 -8.6 16.5
07:45 996 29.41 825 24.36 -1.8 28.7 60 -8.5 16.7
07:50 996 29.41 825 24.36 -2.1 28.2 64 -8.1 17.4
07:55 996 29.41 825 24.36 -2.3 27.8 64 -8.2 17.2
08:00 996 29.41 825 24.36 -2.4 27.7 65 -8 17.5
08:05 996 29.41 825 24.36 -2.4 27.6 65 -8.2 17.3
08:10 996 29.41 825 24.36 -2.3 27.8 63 -8.5 16.7
08:15 996 29.41 825 24.36 -1.9 28.5 63 -8.1 17.4
08:20 996 29.41 825 24.36 -2.1 28.3 64 -8.1 17.5
08:25 996 29.41 825 24.36 -2.1 28.3 62 -8.4 16.9
08:30 996 29.41 825 24.36 -1.8 28.8 61 -8.3 17
08:35 996 29.41 825 24.36 -1.6 29 62 -8 17.7
08:40 996 29.41 825 24.36 -1.8 28.8 62 -8.2 17.2
08:45 996 29.41 825 24.36 -1.4 29.4 59 -8.4 16.9
08:50 996 29.41 825 24.36 -1.4 29.5 60 -8.1 17.5
08:55 996 29.41 825 24.36 -1.5 29.3 60 -8.2 17.2
09:00 996 29.41 825 24.36 -1.4 29.5 60 -8.3 17.1
09:05 996 29.41 825 24.36 -1.3 29.6 58 -8.5 16.7
09:10 996 29.41 825 24.36 -1 30.3 57 -8.5 16.7
09:15 996 29.41 825 24.36 -1.1 30 61 -7.6 18.3
09:20 996 29.41 825 24.36 -1.4 29.5 62 -7.8 18
09:25 996 29.41 825 24.36 -1.5 29.4 63 -7.7 18.2
09:30 996 29.41 825 24.36 -1.5 29.4 63 -7.7 18.2
09:35 996 29.41 825 24.36 -1.4 29.4 62 -7.7 18.1
09:40 996 29.41 825 24.36 -1.3 29.7 62 -7.7 18.1
09:45 996 29.41 825 24.36 -1.1 30 61 -7.8 18
09:50 996 29.41 825 24.36 -0.9 30.3 60 -7.7 18.2
09:55 996 29.41 825 24.36 -0.8 30.5 59 -7.9 17.7
10:00 996 29.41 825 24.36 -0.6 30.9 59 -7.6 18.4
10:05 996 29.41 825 24.36 -0.8 30.5 58 -8 17.6
10:10 996 29.41 825 24.36 -0.5 31.2 56 -8.2 17.3
10:15 996 29.41 825 24.36 -0.2 31.7 57 -7.7 18.1
10:20 996 29.41 825 24.36 -0 32 54 -8.3 17.1
10:25 996 29.41 825 24.36 0.3 32.6 50 -9 15.9
10:30 996 29.41 825 24.36 0.7 33.2 53 -7.8 18
10:35 996 29.41 825 24.36 0.4 32.7 56 -7.5 18.5
10:40 996 29.41 825 24.36 0.5 32.9 52 -8.3 17.1
10:45 996 29.41 825 24.36 0.8 33.4 52 -8.1 17.5
10:50 996 29.41 825 24.36 1 33.8 53 -7.5 18.4
10:55 996 29.41 825 24.36 1.1 33.9 52 -7.8 17.9
11:00 995 29.38 825 24.36 0.6 33.2 54 -7.5 18.5
11:05 995 29.38 825 24.36 0.6 33.1 54 -7.7 18.1
11:10 995 29.38 825 24.36 1.1 34 52 -7.7 18.1
11:15 995 29.38 825 24.36 1.4 34.4 51 -7.8 18
11:20 995 29.38 824 24.33 1.6 34.9 51 -7.6 18.4
11:25 995 29.38 824 24.33 1.6 34.9 50 -7.6 18.2
11:30 995 29.38 824 24.33 1.1 34 53 -7.5 18.5
11:35 995 29.38 824 24.33 0.9 33.7 54 -7.4 18.7
11:40 995 29.38 824 24.33 1 33.8 52 -7.8 17.9
11:45 995 29.38 824 24.33 1.3 34.3 50 -8 17.6
11:50 995 29.38 824 24.33 1.1 34 52 -7.7 18.1
11:55 995 29.38 824 24.33 1.1 33.9 53 -7.6 18.3
12:00 995 29.38 824 24.33 1.2 34.2 51 -7.7 18.1
12:05 995 29.38 824 24.33 0.9 33.7 54 -7.3 18.8
12:10 995 29.38 824 24.33 0.7 33.2 55 -7.4 18.6
12:15 995 29.38 824 24.33 0.8 33.5 54 -7.5 18.5
12:20 995 29.38 824 24.33 0.9 33.7 54 -7.4 18.7
12:25 995 29.38 824 24.33 0.8 33.4 55 -7.3 18.8
12:30 995 29.38 824 24.33 0.9 33.6 54 -7.3 18.8
12:35 995 29.38 824 24.33 1.4 34.6 54 -7 19.4
12:40 994 29.35 824 24.33 1.1 33.9 56 -6.8 19.8
12:45 994 29.35 824 24.33 1.2 34.2 54 -7 19.3
12:50 994 29.35 824 24.33 1.6 34.8 55 -6.5 20.3
12:55 994 29.35 824 24.33 1.6 34.9 55 -6.5 20.3
13:00 994 29.35 823 24.3 1.5 34.7 54 -6.7 19.9
13:05 994 29.35 823 24.3 1.9 35.4 54 -6.6 20.1
13:10 994 29.35 823 24.3 2.2 36 52 -6.6 20.1
13:15 994 29.35 823 24.3 2.1 35.7 56 -5.9 21.4
13:20 994 29.35 823 24.3 1.6 34.9 60 -5.3 22.4
13:25 994 29.35 823 24.3 1.1 33.9 62 -5.4 22.2
13:30 994 29.35 823 24.3 1 33.8 64 -5 23
13:35 994 29.35 823 24.3 0.9 33.7 66 -4.7 23.5
13:40 994 29.35 823 24.3 0.9 33.7 69 -4 24.7
13:45 994 29.35 823 24.3 0.5 33 72 -4 24.7
13:50 994 29.35 823 24.3 0.5 32.8 74 -3.7 25.4
13:55 994 29.35 823 24.3 0.3 32.5 75 -3.6 25.5
14:00 994 29.35 823 24.3 0.1 32.2 76 -3.7 25.4
14:05 994 29.35 823 24.3 0 32.1 76 -3.6 25.4
14:10 994 29.35 823 24.3 0.1 32.1 76 -3.6 25.5
14:15 994 29.35 823 24.3 0.1 32.2 77 -3.5 25.8
14:20 994 29.35 823 24.3 -0 31.9 78 -3.5 25.7
14:25 994 29.35 823 24.3 -0.2 31.6 79 -3.4 25.9
14:30 994 29.35 823 24.3 -0.5 31.2 80 -3.5 25.7
14:35 994 29.35 823 24.3 -0.3 31.5 79 -3.5 25.7
14:40 994 29.35 823 24.3 -0.2 31.7 79 -3.4 25.8
14:45 994 29.35 823 24.3 -0.1 31.8 79 -3.4 25.9
14:50 994 29.35 823 24.3 -0.2 31.6 79 -3.5 25.8
14:55 994 29.35 823 24.3 -0.2 31.7 79 -3.5 25.7
15:00 994 29.35 823 24.3 -0.2 31.7 78 -3.5 25.6
15:05 994 29.35 823 24.3 -0.3 31.5 80 -3.4 26
15:10 994 29.35 823 24.3 -0.3 31.4 80 -3.3 26
15:15 994 29.35 823 24.3 -0.3 31.5 80 -3.3 26.1
15:20 994 29.35 823 24.3 -0.4 31.2 80 -3.4 25.9
15:25 994 29.35 823 24.3 -0.5 31.1 81 -3.3 26
15:30 994 29.35 823 24.3 -0.6 30.9 82 -3.4 25.9
15:35 994 29.35 823 24.3 -0.7 30.7 82 -3.3 26
15:40 994 29.35 823 24.3 -1.1 30 85 -3.3 26.1
15:45 994 29.35 823 24.3 -1.6 29.1 87 -3.4 25.8
15:50 994 29.35 823 24.3 -1.5 29.3 87 -3.5 25.8
15:55 994 29.35 823 24.3 -1.9 28.6 89 -3.5 25.8
16:00 994 29.35 823 24.3 -2 28.5 89 -3.5 25.6
16:05 994 29.35 823 24.3 -1.7 29 87 -3.5 25.7
16:10 994 29.35 823 24.3 -1.6 29 88 -3.4 25.9
16:15 994 29.35 823 24.3 -1.6 29.1 88 -3.4 25.9
16:20 994 29.35 823 24.3 -1.5 29.3 87 -3.4 26
16:25 994 29.35 823 24.3 -1.5 29.3 87 -3.3 26
16:30 994 29.35 823 24.3 -1.5 29.4 88 -3.3 26.1
16:35 994 29.35 823 24.3 -1.5 29.3 89 -3.1 26.4
16:40 994 29.35 823 24.3 -1.7 28.9 90 -3.1 26.4
16:45 994 29.35 823 24.3 -1.8 28.8 90 -3.1 26.3
16:50 994 29.35 823 24.3 -1.7 29 90 -3.1 26.4
16:55 994 29.35 823 24.3 -1.7 29 90 -3.1 26.4
17:00 994 29.35 823 24.3 -1.6 29.1 90 -3.1 26.5
17:05 994 29.35 823 24.3 -1.6 29 90 -3 26.5
17:10 994 29.35 823 24.3 -1.6 29.1 90 -3.1 26.4
17:15 994 29.35 823 24.3 -1.9 28.6 91 -3.2 26.3
17:20 994 29.35 823 24.3 -1.9 28.6 91 -3.2 26.3
17:25 994 29.35 823 24.3 -2 28.4 91 -3.2 26.2
17:30 994 29.35 823 24.3 -2.2 28 93 -3.1 26.4
17:35 994 29.35 823 24.3 -2 28.3 92 -3.1 26.3
17:40 994 29.35 824 24.33 -2 28.3 92 -3.1 26.4
17:45 994 29.35 824 24.33 -2 28.4 92 -3.2 26.3
17:50 995 29.38 824 24.33 -1.9 28.5 92 -3 26.6
17:55 995 29.38 824 24.33 -1.9 28.5 92 -3 26.5
18:00 995 29.38 824 24.33 -1.9 28.6 92 -3 26.6
18:05 995 29.38 824 24.33 -1.9 28.6 92 -3 26.5
18:10 995 29.38 824 24.33 -1.9 28.5 92 -3.1 26.4
18:15 995 29.38 824 24.33 -2 28.4 92 -3.1 26.5
18:20 995 29.38 824 24.33 -2.1 28.2 94 -3 26.7
18:25 995 29.38 824 24.33 -2.2 28 94 -3 26.6
18:30 995 29.38 824 24.33 -2.3 27.9 95 -3 26.6
18:35 995 29.38 824 24.33 -2.3 27.9 95 -3 26.7
18:40 995 29.38 824 24.33 -2.2 28 95 -2.9 26.8
18:45 995 29.38 824 24.33 -2.2 28.1 95 -2.9 26.9
18:50 995 29.38 824 24.33 -2.2 28.1 95 -2.8 26.9
18:55 995 29.38 824 24.33 -2.2 28.1 95 -2.9 26.8
19:00 995 29.38 824 24.33 -2.3 27.9 95 -2.9 26.8
19:05 995 29.38 824 24.33 -2.3 27.8 96 -2.9 26.7
19:10 995 29.38 824 24.33 -2.3 27.8 96 -2.9 26.7
19:15 995 29.38 824 24.33 -2.3 27.8 96 -2.9 26.8
19:20 995 29.38 824 24.33 -2.3 27.8 96 -3 26.7
19:25 995 29.38 824 24.33 -2.4 27.7 96 -3 26.6
19:30 995 29.38 824 24.33 -2.4 27.6 96 -3 26.6
19:35 995 29.38 824 24.33 -2.4 27.7 96 -2.9 26.7
19:40 995 29.38 824 24.33 -2.4 27.6 96 -3 26.6
19:45 995 29.38 824 24.33 -2.5 27.5 96 -3 26.6
19:50 995 29.38 824 24.33 -2.5 27.4 96 -3 26.5
19:55 995 29.38 824 24.33 -2.6 27.3 96 -3.1 26.4
20:00 995 29.38 824 24.33 -2.7 27.2 97 -3.1 26.3
20:05 995 29.38 825 24.36 -2.8 27 96 -3.2 26.2
20:10 995 29.38 825 24.36 -2.8 27 97 -3.3 26.1
20:15 995 29.38 825 24.36 -2.9 26.8 96 -3.5 25.8
20:20 995 29.38 825 24.36 -3.1 26.4 96 -3.7 25.4
20:25 995 29.38 825 24.36 -3.3 26.1 96 -3.8 25.1
20:30 996 29.41 825 24.36 -3.3 26 97 -3.8 25.2
20:35 996 29.41 825 24.36 -3.3 26.1 97 -3.8 25.2
20:40 996 29.41 825 24.36 -3.3 26 96 -3.9 25
20:45 996 29.41 825 24.36 -3.4 25.8 95 -4.1 24.7
20:50 996 29.41 825 24.36 -3.6 25.6 96 -4.2 24.5
20:55 996 29.41 825 24.36 -3.6 25.5 95 -4.2 24.4
21:00 996 29.41 825 24.36 -3.6 25.5 95 -4.3 24.3
21:05 996 29.41 825 24.36 -3.6 25.4 95 -4.4 24.1
21:10 996 29.41 826 24.39 -3.8 25.2 96 -4.4 24.1
21:15 997 29.44 826 24.39 -3.9 25.1 95 -4.5 23.9
21:20 997 29.44 826 24.39 -4.1 24.7 95 -4.7 23.5
21:25 997 29.44 826 24.39 -4.3 24.2 95 -5 22.9
21:30 997 29.44 826 24.39 -4.5 23.8 94 -5.3 22.4
21:35 997 29.44 826 24.39 -4.8 23.4 95 -5.5 22.2
21:40 997 29.44 827 24.42 -4.9 23.2 95 -5.6 21.9
21:45 998 29.47 827 24.42 -4.9 23.1 95 -5.7 21.8
21:50 998 29.47 827 24.42 -5 23 94 -5.8 21.6
21:55 998 29.47 827 24.42 -5.1 22.8 94 -5.9 21.4
22:00 998 29.47 827 24.42 -5.2 22.6 95 -5.9 21.3
22:05 998 29.47 828 24.45 -5.3 22.5 94 -6.1 21
22:10 999 29.5 828 24.45 -5.5 22.2 94 -6.3 20.7
22:15 999 29.5 828 24.45 -5.6 21.9 94 -6.4 20.5
22:20 999 29.5 828 24.45 -5.7 21.7 94 -6.5 20.2
22:25 999 29.5 828 24.45 -5.8 21.5 94 -6.7 20
22:30 999 29.5 828 24.45 -5.9 21.3 93 -6.8 19.7
22:35 999 29.5 828 24.45 -6.2 20.9 94 -7 19.3
22:40 999 29.5 828 24.45 -6.4 20.4 93 -7.3 18.8
22:45 999 29.5 828 24.45 -6.6 20.1 93 -7.5 18.4
22:50 999 29.5 829 24.48 -6.8 19.8 93 -7.7 18.1
22:55 1000 29.53 829 24.48 -6.9 19.6 93 -7.8 17.9
23:00 1000 29.53 829 24.48 -7 19.4 94 -7.9 17.8
23:05 1000 29.53 829 24.48 -7.1 19.3 94 -8 17.7
23:10 1000 29.53 829 24.48 -7.2 19.1 93 -8.1 17.5
23:15 1000 29.53 829 24.48 -7.2 19 93 -8.1 17.4
23:20 1000 29.53 829 24.48 -7.3 18.9 93 -8.2 17.2
23:25 1000 29.53 829 24.48 -7.4 18.7 93 -8.4 16.9
23:30 1000 29.53 830 24.51 -7.5 18.5 93 -8.5 16.8
23:35 1000 29.53 830 24.51 -7.6 18.4 93 -8.5 16.7
23:40 1001 29.56 830 24.51 -7.6 18.3 93 -8.6 16.6
23:45 1001 29.56 830 24.51 -7.7 18.2 93 -8.7 16.4
23:50 1001 29.56 830 24.51 -7.8 18.1 93 -8.7 16.3
23:55 1001 29.56 830 24.51 -7.8 17.9 93 -8.8 16.2
24:00 1001 29.56 830 24.51 -7.8 17.9 92 -8.9 16